createdAt,value
2023-05-01T00:00:48.027Z,5.28
2023-05-01T00:03:15.241Z,6.18
2023-05-01T00:05:43.606Z,5.75
2023-05-01T00:08:10.816Z,4.40
2023-05-01T00:10:37.842Z,5.15
2023-05-01T00:13:05.302Z,4.50
2023-05-01T00:15:32.683Z,4.45
2023-05-01T00:17:59.673Z,5.05
2023-05-01T00:20:27.258Z,6.93
2023-05-01T00:22:55.703Z,6.47
2023-05-01T00:25:22.613Z,4.75
2023-05-01T00:27:49.518Z,4.97
2023-05-01T00:30:16.599Z,4.50
2023-05-01T00:32:43.580Z,5.55
2023-05-01T00:35:10.554Z,4.25
2023-05-01T00:37:37.465Z,5.18
2023-05-01T00:40:07.082Z,5.43
2023-05-01T00:42:37.312Z,4.95
2023-05-01T00:45:04.959Z,7.22
2023-05-01T00:47:32.387Z,6.25
2023-05-01T00:50:00.345Z,6.93
2023-05-01T00:52:27.489Z,4.10
2023-05-01T00:54:54.812Z,3.80
2023-05-01T00:57:23.727Z,4.95
2023-05-01T00:59:50.806Z,5.72
2023-05-01T01:02:17.794Z,5.35
2023-05-01T01:04:46.552Z,4.28
2023-05-01T01:07:19.682Z,4.78
2023-05-01T01:09:58.174Z,4.72
2023-05-01T01:12:32.110Z,5.78
2023-05-01T01:15:08.839Z,5.35
2023-05-01T01:17:42.546Z,5.28
2023-05-01T01:20:30.419Z,4.55
2023-05-01T01:23:13.494Z,5.50
2023-05-01T01:26:22.315Z,4.63
2023-05-01T01:29:10.144Z,5.32
2023-05-01T01:31:44.488Z,4.35
2023-05-01T01:34:19.010Z,6.43
2023-05-01T01:36:50.771Z,4.93
2023-05-01T01:39:28.956Z,4.88
2023-05-01T01:41:58.035Z,5.45
2023-05-01T01:44:33.016Z,4.82
2023-05-01T01:47:02.332Z,4.70
2023-05-01T01:49:32.602Z,4.50
2023-05-01T01:52:01.698Z,4.85
2023-05-01T01:54:32.894Z,8.15
2023-05-01T01:57:02.349Z,6.90
2023-05-01T01:59:31.480Z,8.18
2023-05-01T02:01:59.210Z,6.25
2023-05-01T02:04:28.530Z,6.47
2023-05-01T02:06:59.983Z,5.63
2023-05-01T02:09:29.696Z,6.25
2023-05-01T02:11:57.510Z,5.13
2023-05-01T02:14:26.863Z,9.05
2023-05-01T02:16:54.957Z,6.68
2023-05-01T02:19:23.177Z,5.85
2023-05-01T02:21:52.293Z,5.82
2023-05-01T02:24:23.415Z,5.65
2023-05-01T02:26:54.962Z,5.75
2023-05-01T02:29:21.982Z,5.65
2023-05-01T02:31:49.026Z,7.53
2023-05-01T02:34:15.951Z,8.10
2023-05-01T02:36:42.946Z,6.53
2023-05-01T02:39:10.260Z,6.47
2023-05-01T02:41:39.616Z,6.43
2023-05-01T02:44:09.916Z,6.47
2023-05-01T02:46:37.960Z,8.85
2023-05-01T02:49:06.897Z,5.97
2023-05-01T02:51:35.443Z,6.40
2023-05-01T02:54:02.909Z,6.13
2023-05-01T02:56:30.081Z,6.35
2023-05-01T02:58:58.401Z,5.82
2023-05-01T03:01:25.564Z,7.60
2023-05-01T03:03:52.806Z,6.60
2023-05-01T03:06:19.815Z,6.13
2023-05-01T03:08:46.804Z,7.03
2023-05-01T03:11:14.023Z,6.32
2023-05-01T03:13:41.052Z,5.80
2023-05-01T03:16:09.521Z,7.60
2023-05-01T03:18:36.469Z,6.82
2023-05-01T03:21:03.466Z,6.38
2023-05-01T03:23:30.423Z,6.10
2023-05-01T03:25:57.302Z,6.40
2023-05-01T03:28:24.340Z,7.68
2023-05-01T03:30:51.471Z,8.57
2023-05-01T03:33:19.768Z,8.68
2023-05-01T03:35:47.194Z,10.35
2023-05-01T03:38:14.301Z,8.27
2023-05-01T03:40:41.205Z,8.00
2023-05-01T03:43:08.304Z,8.90
2023-05-01T03:45:35.229Z,9.13
2023-05-01T03:48:02.219Z,8.43
2023-05-01T03:50:30.479Z,8.80
2023-05-01T03:52:57.394Z,12.80
2023-05-01T03:55:24.373Z,8.93
2023-05-01T03:57:51.496Z,9.18
2023-05-01T04:00:18.699Z,8.63
2023-05-01T04:02:45.860Z,8.55
2023-05-01T04:05:13.411Z,11.00
2023-05-01T04:07:41.976Z,8.68
2023-05-01T04:10:09.466Z,9.50
2023-05-01T04:12:36.755Z,9.40
2023-05-01T04:15:03.874Z,9.52
2023-05-01T04:17:31.418Z,9.02
2023-05-01T04:19:58.530Z,9.32
2023-05-01T04:22:25.808Z,9.27
2023-05-01T04:24:54.310Z,10.05
2023-05-01T04:27:21.204Z,10.63
2023-05-01T04:29:48.218Z,11.15
2023-05-01T04:32:15.274Z,10.45
2023-05-01T04:34:42.150Z,9.98
2023-05-01T04:37:09.125Z,10.25
2023-05-01T04:39:36.223Z,10.07
2023-05-01T04:42:04.836Z,9.95
2023-05-01T04:44:31.954Z,10.07
2023-05-01T04:46:58.916Z,10.13
2023-05-01T04:49:25.836Z,10.50
2023-05-01T04:51:52.851Z,9.95
2023-05-01T04:54:19.765Z,10.32
2023-05-01T04:56:46.856Z,10.07
2023-05-01T04:59:15.166Z,10.85
2023-05-01T05:01:42.122Z,11.98
2023-05-01T05:04:09.224Z,12.48
2023-05-01T05:06:36.266Z,11.05
2023-05-01T05:09:03.141Z,12.55
2023-05-01T05:11:30.053Z,11.60
2023-05-01T05:13:57.036Z,13.00
2023-05-01T05:16:25.347Z,12.52
2023-05-01T05:18:52.286Z,12.02
2023-05-01T05:21:19.603Z,15.85
2023-05-01T05:23:46.545Z,13.88
2023-05-01T05:26:13.493Z,13.57
2023-05-01T05:28:40.444Z,13.00
2023-05-01T05:31:07.359Z,14.10
2023-05-01T05:33:35.640Z,14.10
2023-05-01T05:36:02.798Z,14.15
2023-05-01T05:38:29.911Z,14.32
2023-05-01T05:40:56.839Z,14.75
2023-05-01T05:43:25.575Z,14.20
2023-05-01T05:45:57.199Z,13.27
2023-05-01T05:48:24.201Z,14.20
2023-05-01T05:50:52.757Z,14.93
2023-05-01T05:53:19.722Z,14.40
2023-05-01T05:55:47.372Z,14.25
2023-05-01T05:58:14.903Z,14.73
2023-05-01T06:00:42.219Z,15.32
2023-05-01T06:03:09.291Z,14.98
2023-05-01T06:05:36.344Z,15.40
2023-05-01T06:08:05.061Z,15.60
2023-05-01T06:10:32.029Z,15.50
2023-05-01T06:13:00.357Z,15.55
2023-05-01T06:15:39.232Z,14.32
2023-05-01T06:18:06.645Z,15.15
2023-05-01T06:20:33.949Z,15.27
2023-05-01T06:23:00.880Z,15.20
2023-05-01T06:25:29.125Z,15.75
2023-05-01T06:27:56.070Z,16.95
2023-05-01T06:30:23.023Z,16.50
2023-05-01T06:32:50.057Z,17.70
2023-05-01T06:35:17.385Z,18.58
2023-05-01T06:37:44.350Z,18.08
2023-05-01T06:40:11.644Z,18.52
2023-05-01T06:42:40.502Z,20.70
2023-05-01T06:45:08.571Z,19.10
2023-05-01T06:47:35.685Z,21.83
2023-05-01T06:50:04.991Z,25.02
2023-05-01T06:52:32.554Z,26.20
2023-05-01T06:54:59.445Z,26.15
2023-05-01T06:57:26.388Z,28.25
2023-05-01T06:59:54.913Z,28.55
2023-05-01T07:02:22.235Z,30.15
2023-05-01T07:04:49.182Z,29.38
2023-05-01T07:07:16.325Z,30.52
2023-05-01T07:09:43.191Z,32.70
2023-05-01T07:12:10.173Z,58.95
2023-05-01T07:14:37.198Z,35.58
2023-05-01T07:17:05.558Z,35.00
2023-05-01T07:19:32.512Z,34.13
2023-05-01T07:21:59.395Z,33.30
2023-05-01T07:24:26.446Z,34.00
2023-05-01T07:26:53.622Z,30.65
2023-05-01T07:29:20.654Z,35.03
2023-05-01T07:31:47.765Z,34.08
2023-05-01T07:34:16.135Z,35.78
2023-05-01T07:36:43.274Z,36.72
2023-05-01T07:39:10.237Z,35.60
2023-05-01T07:41:37.149Z,33.22
2023-05-01T07:44:04.170Z,36.92
2023-05-01T07:46:31.230Z,35.22
2023-05-01T07:48:58.197Z,37.95
2023-05-01T07:51:26.594Z,38.25
2023-05-01T07:53:53.532Z,42.08
2023-05-01T07:56:20.436Z,37.63
2023-05-01T07:58:47.432Z,39.47
2023-05-01T08:01:14.470Z,40.47
2023-05-01T08:03:41.712Z,43.08
2023-05-01T08:06:08.836Z,40.45
2023-05-01T08:08:37.233Z,42.75
2023-05-01T08:11:04.205Z,42.35
2023-05-01T08:13:31.086Z,42.10
2023-05-01T08:16:01.423Z,45.20
2023-05-01T08:18:28.366Z,42.10
2023-05-01T08:20:55.320Z,42.22
2023-05-01T08:23:22.490Z,43.15
2023-05-01T08:25:51.869Z,42.58
2023-05-01T08:28:19.641Z,43.10
2023-05-01T08:30:46.696Z,42.95
2023-05-01T08:33:13.851Z,39.85
2023-05-01T08:35:40.799Z,41.20
2023-05-01T08:38:07.735Z,42.90
2023-05-01T08:40:38.206Z,43.72
2023-05-01T08:43:06.598Z,44.15
2023-05-01T08:45:34.894Z,47.40
2023-05-01T08:48:04.991Z,43.25
2023-05-01T08:50:34.369Z,43.88
2023-05-01T08:53:02.241Z,45.40
2023-05-01T08:55:31.138Z,47.55
2023-05-01T08:57:59.045Z,42.38
2023-05-01T09:00:28.533Z,47.58
2023-05-01T09:02:56.174Z,126.35
2023-05-01T09:05:23.138Z,107.32
2023-05-01T09:07:50.088Z,165.38
2023-05-01T09:10:18.108Z,49.65
2023-05-01T09:12:49.037Z,64.40
2023-05-01T09:15:16.684Z,54.63
2023-05-01T09:17:45.775Z,44.40
2023-05-01T09:20:12.832Z,41.33
2023-05-01T09:22:40.058Z,40.90
2023-05-01T09:25:07.956Z,42.22
2023-05-01T09:27:35.780Z,37.90
2023-05-01T09:30:02.875Z,42.17
2023-05-01T09:32:29.938Z,33.05
2023-05-01T09:35:10.495Z,36.55
2023-05-01T09:37:37.659Z,42.05
2023-05-01T09:40:06.863Z,64.13
2023-05-01T09:42:34.561Z,45.90
2023-05-01T09:45:03.046Z,40.45
2023-05-01T09:47:30.457Z,62.83
2023-05-01T09:49:59.716Z,57.45
2023-05-01T09:52:27.592Z,34.80
2023-05-01T09:55:12.578Z,33.70
2023-05-01T09:57:39.649Z,56.38
2023-05-01T10:00:07.673Z,66.28
2023-05-01T10:02:34.881Z,51.42
2023-05-01T10:05:03.525Z,51.05
2023-05-01T10:07:30.440Z,39.25
2023-05-01T10:09:59.365Z,63.38
2023-05-01T10:12:29.757Z,37.22
2023-05-01T10:14:57.621Z,38.20
2023-05-01T10:17:24.709Z,36.95
2023-05-01T10:19:51.695Z,42.33
2023-05-01T10:22:19.964Z,94.80
2023-05-01T10:24:46.900Z,145.25
2023-05-01T10:27:13.916Z,35.67
2023-05-01T10:29:41.211Z,34.20
2023-05-01T10:32:09.503Z,34.28
2023-05-01T10:34:39.643Z,29.45
2023-05-01T10:37:11.846Z,29.27
2023-05-01T10:39:40.300Z,28.45
2023-05-01T10:42:08.764Z,30.20
2023-05-01T10:44:35.919Z,36.25
2023-05-01T10:47:36.256Z,30.52
2023-05-01T10:50:04.731Z,26.20
2023-05-01T10:52:51.782Z,27.13
2023-05-01T10:55:36.168Z,26.02
2023-05-01T10:58:03.193Z,25.02
2023-05-01T11:00:30.850Z,27.80
2023-05-01T11:03:34.950Z,23.50
2023-05-01T11:06:08.532Z,23.10
2023-05-01T11:08:37.101Z,24.52
2023-05-01T11:11:41.302Z,23.92
2023-05-01T11:14:09.731Z,26.02
2023-05-01T11:16:44.455Z,90.03
2023-05-01T11:21:39.991Z,28.73
2023-05-01T11:24:07.449Z,26.60
2023-05-01T11:26:38.582Z,29.92
2023-05-01T11:29:06.293Z,23.00
2023-05-01T11:31:35.044Z,26.17
2023-05-01T11:34:02.365Z,24.92
2023-05-01T11:36:30.374Z,22.27
2023-05-01T11:38:59.095Z,22.10
2023-05-01T11:41:27.069Z,22.08
2023-05-01T11:43:55.570Z,25.98
2023-05-01T11:46:26.666Z,20.20
2023-05-01T11:48:55.187Z,23.20
2023-05-01T11:51:22.342Z,23.73
2023-05-01T11:53:59.441Z,25.23
2023-05-01T11:56:27.575Z,24.77
2023-05-01T11:58:56.384Z,22.67
2023-05-01T12:01:33.949Z,23.63
2023-05-01T12:04:02.533Z,25.30
2023-05-01T12:06:39.847Z,23.20
2023-05-01T12:09:07.679Z,23.42
2023-05-01T12:11:35.402Z,25.25
2023-05-01T12:14:02.750Z,27.02
2023-05-01T12:16:30.139Z,26.75
2023-05-01T12:18:57.336Z,25.58
2023-05-01T12:21:25.655Z,25.52
2023-05-01T12:23:52.656Z,25.92
2023-05-01T12:26:20.838Z,22.20
2023-05-01T12:28:54.980Z,23.05
2023-05-01T12:31:22.738Z,25.98
2023-05-01T12:33:56.676Z,24.00
2023-05-01T12:36:26.132Z,29.70
2023-05-01T12:38:58.700Z,24.40
2023-05-01T12:41:37.232Z,26.75
2023-05-01T12:44:17.326Z,24.42
2023-05-01T12:46:45.459Z,26.08
2023-05-01T12:49:17.197Z,27.58
2023-05-01T12:51:48.737Z,26.98
2023-05-01T12:54:20.490Z,26.40
2023-05-01T12:56:47.491Z,28.95
2023-05-01T12:59:21.753Z,26.27
2023-05-01T13:01:48.889Z,30.20
2023-05-01T13:04:23.239Z,26.25
2023-05-01T13:06:52.735Z,30.08
2023-05-01T13:09:20.024Z,26.55
2023-05-01T13:11:57.622Z,27.15
2023-05-01T13:14:25.596Z,28.58
2023-05-01T13:16:54.941Z,27.55
2023-05-01T13:19:26.638Z,25.67
2023-05-01T13:21:55.738Z,26.17
2023-05-01T13:24:23.117Z,28.33
2023-05-01T13:26:57.204Z,26.52
2023-05-01T13:29:24.197Z,29.48
2023-05-01T13:31:51.208Z,28.75
2023-05-01T13:34:24.601Z,26.42
2023-05-01T13:36:51.617Z,27.50
2023-05-01T13:39:21.413Z,28.88
2023-05-01T13:41:49.188Z,27.73
2023-05-01T13:44:17.421Z,31.70
2023-05-01T13:46:45.404Z,29.92
2023-05-01T13:49:13.714Z,25.77
2023-05-01T13:51:42.549Z,27.95
2023-05-01T13:54:10.204Z,25.73
2023-05-01T13:56:40.686Z,29.88
2023-05-01T13:59:08.625Z,26.00
2023-05-01T14:01:40.250Z,27.25
2023-05-01T14:04:09.808Z,25.65
2023-05-01T14:06:41.552Z,26.98
2023-05-01T14:09:08.758Z,22.33
2023-05-01T14:11:43.711Z,25.58
2023-05-01T14:14:11.672Z,25.90
2023-05-01T14:16:41.272Z,24.65
2023-05-01T14:19:08.304Z,26.58
2023-05-01T14:21:40.886Z,21.40
2023-05-01T14:24:08.643Z,26.90
2023-05-01T14:26:38.811Z,27.10
2023-05-01T14:29:12.372Z,25.95
2023-05-01T14:31:39.366Z,24.80
2023-05-01T14:34:06.378Z,23.73
2023-05-01T14:36:33.424Z,23.45
2023-05-01T14:39:01.497Z,23.33
2023-05-01T14:41:28.913Z,22.60
2023-05-01T14:43:56.133Z,23.48
2023-05-01T14:46:32.896Z,23.27
2023-05-01T14:49:01.334Z,22.08
2023-05-01T14:51:29.169Z,23.60
2023-05-01T14:53:56.260Z,23.17
2023-05-01T14:56:24.019Z,22.15
2023-05-01T14:58:51.268Z,21.15
2023-05-01T15:01:19.285Z,19.65
2023-05-01T15:03:47.836Z,21.75
2023-05-01T15:06:14.939Z,20.85
2023-05-01T15:08:46.332Z,24.10
2023-05-01T15:11:13.840Z,22.48
2023-05-01T15:13:40.827Z,21.02
2023-05-01T15:16:08.117Z,21.63
2023-05-01T15:18:35.173Z,20.52
2023-05-01T15:21:04.137Z,19.40
2023-05-01T15:23:31.238Z,22.10
2023-05-01T15:25:58.629Z,18.10
2023-05-01T15:28:25.614Z,15.73
2023-05-01T15:30:53.206Z,17.50
2023-05-01T15:33:20.347Z,21.88
2023-05-01T15:35:47.504Z,20.30
2023-05-01T15:38:15.867Z,17.55
2023-05-01T15:40:43.638Z,19.05
2023-05-01T15:43:10.592Z,20.50
2023-05-01T15:45:37.879Z,19.60
2023-05-01T15:48:05.293Z,18.10
2023-05-01T15:50:32.326Z,19.63
2023-05-01T15:52:59.321Z,18.50
2023-05-01T15:55:27.978Z,20.80
2023-05-01T15:57:54.923Z,20.85
2023-05-01T16:00:21.938Z,19.88
2023-05-01T16:02:48.957Z,23.02
2023-05-01T16:05:20.098Z,18.58
2023-05-01T16:07:48.788Z,21.65
2023-05-01T16:10:15.818Z,18.63
2023-05-01T16:12:44.123Z,17.23
2023-05-01T16:15:12.015Z,17.65
2023-05-01T16:17:43.606Z,14.45
2023-05-01T16:20:11.766Z,14.85
2023-05-01T16:22:39.383Z,14.25
2023-05-01T16:25:07.321Z,13.57
2023-05-01T16:27:34.626Z,15.43
2023-05-01T16:30:05.568Z,19.42
2023-05-01T16:32:34.374Z,16.73
2023-05-01T16:35:01.458Z,16.90
2023-05-01T16:37:28.408Z,15.82
2023-05-01T16:39:58.258Z,14.85
2023-05-01T16:42:25.331Z,16.50
2023-05-01T16:44:53.466Z,16.38
2023-05-01T16:47:21.810Z,16.73
2023-05-01T16:49:48.946Z,16.23
2023-05-01T16:52:16.142Z,13.40
2023-05-01T16:54:43.209Z,13.55
2023-05-01T16:57:10.356Z,12.75
2023-05-01T16:59:37.717Z,14.75
2023-05-01T17:02:04.638Z,12.98
2023-05-01T17:04:33.478Z,12.65
2023-05-01T17:07:00.482Z,16.77
2023-05-01T17:09:27.427Z,16.45
2023-05-01T17:11:54.417Z,18.38
2023-05-01T17:14:21.334Z,14.52
2023-05-01T17:16:50.048Z,14.98
2023-05-01T17:19:17.609Z,15.15
2023-05-01T17:21:45.971Z,11.90
2023-05-01T17:24:13.078Z,15.57
2023-05-01T17:26:40.080Z,13.60
2023-05-01T17:29:07.072Z,15.57
2023-05-01T17:31:34.113Z,11.02
2023-05-01T17:34:01.141Z,13.57
2023-05-01T17:36:28.111Z,11.02
2023-05-01T17:38:56.470Z,11.10
2023-05-01T17:41:23.530Z,12.80
2023-05-01T17:43:50.528Z,11.85
2023-05-01T17:46:17.502Z,8.80
2023-05-01T17:48:44.619Z,12.07
2023-05-01T17:51:11.672Z,10.20
2023-05-01T17:53:38.606Z,9.18
2023-05-01T17:56:07.170Z,9.23
2023-05-01T17:58:34.268Z,9.77
2023-05-01T18:01:01.214Z,9.02
2023-05-01T18:03:28.644Z,10.13
2023-05-01T18:05:55.646Z,10.30
2023-05-01T18:08:22.585Z,8.25
2023-05-01T18:10:49.565Z,9.82
2023-05-01T18:13:18.191Z,8.88
2023-05-01T18:15:45.409Z,10.00
2023-05-01T18:18:13.106Z,7.95
2023-05-01T18:20:40.267Z,9.65
2023-05-01T18:23:07.378Z,10.52
2023-05-01T18:25:34.358Z,8.95
2023-05-01T18:28:01.505Z,10.02
2023-05-01T18:30:29.946Z,9.85
2023-05-01T18:32:57.004Z,9.40
2023-05-01T18:35:23.913Z,10.48
2023-05-01T18:37:50.838Z,11.85
2023-05-01T18:40:18.047Z,10.85
2023-05-01T18:42:44.950Z,11.95
2023-05-01T18:45:12.104Z,11.00
2023-05-01T18:47:40.430Z,10.52
2023-05-01T18:50:09.178Z,13.55
2023-05-01T18:52:36.151Z,11.75
2023-05-01T18:55:03.335Z,11.25
2023-05-01T18:57:30.467Z,12.07
2023-05-01T18:59:57.768Z,13.98
2023-05-01T19:02:25.020Z,11.85
2023-05-01T19:04:57.835Z,11.48
2023-05-01T19:07:25.629Z,14.32
2023-05-01T19:09:52.797Z,14.10
2023-05-01T19:12:19.829Z,15.82
2023-05-01T19:14:46.766Z,12.00
2023-05-01T19:17:13.728Z,13.32
2023-05-01T19:19:41.026Z,14.32
2023-05-01T19:22:09.491Z,12.90
2023-05-01T19:24:36.529Z,12.80
2023-05-01T19:27:03.608Z,14.13
2023-05-01T19:29:31.868Z,11.93
2023-05-01T19:31:59.029Z,12.93
2023-05-01T19:34:26.104Z,13.45
2023-05-01T19:36:53.297Z,13.75
2023-05-01T19:39:21.763Z,13.32
2023-05-01T19:41:49.026Z,12.93
2023-05-01T19:44:16.027Z,12.85
2023-05-01T19:46:42.978Z,14.15
2023-05-01T19:49:09.936Z,12.38
2023-05-01T19:51:36.892Z,12.27
2023-05-01T19:54:04.067Z,13.43
2023-05-01T19:56:32.401Z,11.73
2023-05-01T19:58:59.491Z,17.83
2023-05-01T20:01:26.504Z,13.57
2023-05-01T20:03:53.722Z,16.13
2023-05-01T20:06:20.988Z,11.27
2023-05-01T20:08:47.997Z,13.02
2023-05-01T20:11:14.945Z,13.80
2023-05-01T20:13:43.533Z,13.57
2023-05-01T20:16:10.731Z,17.70
2023-05-01T20:18:37.918Z,18.33
2023-05-01T20:21:04.823Z,20.75
2023-05-01T20:23:31.798Z,19.15
2023-05-01T20:25:58.715Z,25.40
2023-05-01T20:28:25.698Z,22.88
2023-05-01T20:30:54.068Z,21.65
2023-05-01T20:33:21.049Z,23.00
2023-05-01T20:35:48.203Z,23.45
2023-05-01T20:38:15.086Z,23.38
2023-05-01T20:40:42.259Z,21.38
2023-05-01T20:43:09.522Z,24.88
2023-05-01T20:45:36.458Z,27.30
2023-05-01T20:48:05.096Z,28.25
2023-05-01T20:50:32.292Z,32.08
2023-05-01T20:52:59.248Z,30.23
2023-05-01T20:55:26.204Z,31.48
2023-05-01T20:57:53.159Z,31.17
2023-05-01T21:00:20.105Z,32.35
2023-05-01T21:02:47.276Z,35.72
2023-05-01T21:05:15.648Z,30.70
2023-05-01T21:07:42.595Z,36.88
2023-05-01T21:10:11.095Z,37.28
2023-05-01T21:12:38.080Z,40.47
2023-05-01T21:15:06.021Z,40.72
2023-05-01T21:17:35.343Z,44.90
2023-05-01T21:20:04.339Z,40.22
2023-05-01T21:22:32.608Z,46.90
2023-05-01T21:25:00.618Z,49.05
2023-05-01T21:27:27.741Z,47.72
2023-05-01T21:29:57.500Z,50.03
2023-05-01T21:32:29.020Z,48.17
2023-05-01T21:34:56.142Z,48.53
2023-05-01T21:37:23.083Z,51.15
2023-05-01T21:39:51.457Z,50.70
2023-05-01T21:42:18.528Z,54.17
2023-05-01T21:44:45.445Z,47.70
2023-05-01T21:47:14.823Z,52.05
2023-05-01T21:49:41.985Z,46.40
2023-05-01T21:52:08.929Z,48.25
2023-05-01T21:54:36.799Z,46.33
2023-05-01T21:57:05.163Z,50.08
2023-05-01T21:59:34.976Z,43.10
2023-05-01T22:02:04.795Z,47.72
2023-05-01T22:04:31.893Z,46.15
2023-05-01T22:06:58.818Z,52.95
2023-05-01T22:09:25.890Z,52.95
2023-05-01T22:11:52.837Z,47.15
2023-05-01T22:14:21.212Z,49.30
2023-05-01T22:16:48.236Z,70.03
2023-05-01T22:19:15.187Z,74.75
2023-05-01T22:21:42.118Z,66.45
2023-05-01T22:24:09.024Z,61.88
2023-05-01T22:26:35.963Z,64.60
2023-05-01T22:29:03.118Z,58.50
2023-05-01T22:31:31.398Z,58.78
2023-05-01T22:33:58.356Z,54.08
2023-05-01T22:36:25.256Z,46.38
2023-05-01T22:38:52.314Z,55.17
2023-05-01T22:41:19.237Z,54.40
2023-05-01T22:43:46.133Z,44.05
2023-05-01T22:46:13.126Z,48.38
2023-05-01T22:48:41.501Z,36.67
2023-05-01T22:51:08.440Z,32.50
2023-05-01T22:53:35.362Z,35.30
2023-05-01T22:56:02.265Z,30.77
2023-05-01T22:58:29.185Z,42.40
2023-05-01T23:00:56.096Z,33.83
2023-05-01T23:03:23.207Z,39.75
2023-05-01T23:05:51.545Z,34.92
2023-05-01T23:08:18.447Z,37.50
2023-05-01T23:10:45.360Z,35.28
2023-05-01T23:13:17.860Z,38.92
2023-05-01T23:15:47.125Z,35.42
2023-05-01T23:18:14.863Z,32.65
2023-05-01T23:20:44.579Z,35.92
2023-05-01T23:23:14.274Z,35.78
2023-05-01T23:25:45.833Z,34.20
2023-05-01T23:28:19.228Z,33.80
2023-05-01T23:30:52.475Z,33.97
2023-05-01T23:33:21.401Z,32.13
2023-05-01T23:35:48.623Z,30.27
2023-05-01T23:38:17.427Z,31.75
2023-05-01T23:40:44.787Z,33.78
2023-05-01T23:43:12.803Z,30.73
2023-05-01T23:45:40.027Z,31.92
2023-05-01T23:48:07.497Z,29.48
2023-05-01T23:50:34.739Z,30.88
2023-05-01T23:53:06.109Z,29.63
2023-05-01T23:55:34.641Z,32.22
2023-05-01T23:58:01.760Z,31.88
